Time;durP1;ratioP1;P1;durP2;ratioP2;P2;SDS_P1;SDS_P2;PMS_P1;PMS_P2;Temp;Humidity;BMP_temperature;BMP_pressure;BME280_temperature;BME280_humidity;BME280_pressure;Samples;Min_cycle;Max_cycle;Signal;HPM_P1;HPM_P2
2023/07/03 00:00:18;;;;;;;11.27;10.17;;;24.70;87.60;;;;;;5042974;28;20576;-62
2023/07/03 00:02:52;;;;;;;11.03;9.87;;;24.70;87.70;;;;;;5037706;28;20191;-63
2023/07/03 00:05:21;;;;;;;11.20;9.93;;;24.70;87.80;;;;;;5036758;28;20206;-62
2023/07/03 00:07:49;;;;;;;12.60;11.33;;;24.60;87.80;;;;;;5042998;28;20207;-62
2023/07/03 00:10:21;;;;;;;12.90;11.33;;;24.60;87.90;;;;;;5041133;28;20535;-62
2023/07/03 00:12:48;;;;;;;12.87;10.60;;;24.60;88.00;;;;;;5037382;28;20298;-62
2023/07/03 00:15:15;;;;;;;14.97;11.47;;;24.60;88.20;;;;;;5035622;28;20227;-62
2023/07/03 00:17:45;;;;;;;14.00;11.67;;;24.50;88.20;;;;;;5037364;28;20298;-62
2023/07/03 00:20:13;;;;;;;13.10;10.70;;;24.50;88.30;;;;;;5040947;28;20190;-62
2023/07/03 00:22:42;;;;;;;12.27;10.63;;;24.50;88.40;;;;;;5042808;28;20278;-62
2023/07/03 00:25:10;;;;;;;14.53;11.43;;;24.50;88.40;;;;;;5038613;28;20642;-62
2023/07/03 00:27:37;;;;;;;13.17;11.83;;;24.50;88.40;;;;;;5046682;28;20210;-63
2023/07/03 00:30:05;;;;;;;13.87;11.30;;;24.40;88.40;;;;;;5042384;28;20194;-62
2023/07/03 00:32:33;;;;;;;13.27;11.87;;;24.40;88.60;;;;;;5043614;28;20208;-62
2023/07/03 00:35:03;;;;;;;14.43;11.63;;;24.30;88.60;;;;;;5042580;28;20691;-62
2023/07/03 00:37:30;;;;;;;13.13;11.77;;;24.30;88.90;;;;;;5043223;28;20232;-62
2023/07/03 00:39:57;;;;;;;14.70;12.10;;;24.30;89.10;;;;;;5026211;28;20191;-62
2023/07/03 00:42:29;;;;;;;14.20;12.60;;;24.20;89.20;;;;;;5043513;28;20194;-62
2023/07/03 00:44:58;;;;;;;13.93;12.50;;;24.20;89.50;;;;;;5040843;28;20204;-62
2023/07/03 00:47:29;;;;;;;15.33;12.73;;;24.10;89.60;;;;;;5040021;28;20205;-62
2023/07/03 00:49:57;;;;;;;14.70;13.13;;;24.10;89.80;;;;;;5036043;28;20257;-62
2023/07/03 00:52:25;;;;;;;14.67;12.57;;;24.10;89.80;;;;;;5021309;28;20203;-62
2023/07/03 00:54:54;;;;;;;14.87;13.07;;;24.00;89.90;;;;;;5022835;28;20226;-62
2023/07/03 00:57:23;;;;;;;13.30;11.97;;;24.00;90.00;;;;;;5044281;28;20191;-62
2023/07/03 00:59:53;;;;;;;15.80;14.20;;;24.00;90.10;;;;;;5046830;28;20191;-62
2023/07/03 01:02:37;;;;;;;14.77;13.10;;;23.90;90.10;;;;;;5046054;28;20570;-62
2023/07/03 01:05:10;;;;;;;15.27;13.10;;;23.90;90.20;;;;;;5046170;28;20206;-62
2023/07/03 01:07:39;;;;;;;15.33;13.13;;;23.90;90.20;;;;;;5043254;28;20260;-62
2023/07/03 01:10:12;;;;;;;12.77;11.47;;;23.80;90.30;;;;;;5041988;28;20194;-62
2023/07/03 01:12:45;;;;;;;13.67;12.27;;;23.80;90.40;;;;;;5044866;28;20264;-63
2023/07/03 01:15:17;;;;;;;12.20;10.97;;;23.80;90.40;;;;;;5039258;28;20218;-62
2023/07/03 01:17:50;;;;;;;14.97;11.17;;;23.80;90.50;;;;;;5037788;28;20221;-62
2023/07/03 01:20:19;;;;;;;13.10;10.97;;;23.80;90.60;;;;;;5047311;28;20198;-62
2023/07/03 01:23:05;;;;;;;12.40;11.03;;;23.80;90.60;;;;;;5045331;28;20191;-62
2023/07/03 01:25:36;;;;;;;13.10;11.70;;;23.80;90.70;;;;;;5041964;28;20700;-62
2023/07/03 01:28:09;;;;;;;13.77;12.30;;;23.70;90.40;;;;;;5037640;28;20265;-63
2023/07/03 01:30:42;;;;;;;15.00;13.37;;;23.70;90.40;;;;;;5043339;28;20820;-63
2023/07/03 01:33:17;;;;;;;14.20;12.80;;;23.60;90.30;;;;;;5045696;28;20330;-62
2023/07/03 01:35:47;;;;;;;14.77;13.23;;;23.60;90.40;;;;;;5048152;28;20214;-62
2023/07/03 01:38:16;;;;;;;18.03;12.33;;;23.60;90.60;;;;;;5041917;28;20210;-62
2023/07/03 01:40:43;;;;;;;14.83;11.70;;;23.60;90.70;;;;;;5044863;28;20195;-62
2023/07/03 01:43:14;;;;;;;13.20;11.87;;;23.50;90.80;;;;;;5027673;28;20293;-63
2023/07/03 01:45:44;;;;;;;14.60;12.20;;;23.50;90.90;;;;;;5046466;28;20202;-62
2023/07/03 01:48:11;;;;;;;12.60;11.40;;;23.40;90.90;;;;;;5063567;28;20268;-62
2023/07/03 01:50:39;;;;;;;13.23;11.83;;;23.40;91.00;;;;;;5043708;28;20629;-62
2023/07/03 01:53:15;;;;;;;13.10;11.70;;;23.50;91.00;;;;;;5051064;28;20198;-62
2023/07/03 01:55:57;;;;;;;12.93;11.50;;;23.40;91.10;;;;;;5048000;28;20224;-62
2023/07/03 01:58:46;;;;;;;13.57;12.17;;;23.40;91.10;;;;;;5043960;28;20213;-62
2023/07/03 02:01:24;;;;;;;13.43;12.13;;;23.40;91.00;;;;;;5041468;28;20202;-62
2023/07/03 02:04:23;;;;;;;15.50;13.03;;;23.40;91.00;;;;;;5028945;28;20257;-62
2023/07/03 02:06:54;;;;;;;14.73;13.20;;;23.40;91.10;;;;;;5026328;28;20230;-62
2023/07/03 02:09:21;;;;;;;14.73;12.80;;;23.30;91.10;;;;;;5043218;28;20637;-62
2023/07/03 02:11:52;;;;;;;14.47;12.97;;;23.20;91.10;;;;;;5042461;28;20252;-62
2023/07/03 02:14:24;;;;;;;13.20;11.87;;;23.20;91.20;;;;;;5024380;28;20636;-62
2023/07/03 02:16:52;;;;;;;15.10;12.10;;;23.20;91.30;;;;;;5033632;28;20214;-62
2023/07/03 02:19:28;;;;;;;13.70;12.40;;;23.20;91.30;;;;;;5024366;28;20580;-62
2023/07/03 02:21:56;;;;;;;12.80;11.17;;;23.20;91.30;;;;;;5046220;28;20267;-62
2023/07/03 02:24:24;;;;;;;16.73;11.73;;;23.20;91.30;;;;;;5032602;28;20294;-62
2023/07/03 02:26:51;;;;;;;13.93;12.20;;;23.10;91.20;;;;;;5019316;28;20282;-62
2023/07/03 02:29:19;;;;;;;14.20;12.90;;;23.10;91.20;;;;;;5028108;28;20203;-62
2023/07/03 02:31:46;;;;;;;14.37;13.07;;;23.10;91.30;;;;;;5029282;28;20218;-62
2023/07/03 02:34:14;;;;;;;14.30;12.83;;;23.10;91.40;;;;;;5023403;28;20228;-62
2023/07/03 02:36:45;;;;;;;14.53;13.17;;;23.10;91.40;;;;;;5021530;28;20732;-62
2023/07/03 02:39:12;;;;;;;13.90;12.40;;;23.10;91.50;;;;;;5017799;28;20737;-62
2023/07/03 02:41:39;;;;;;;14.50;12.80;;;23.10;91.50;;;;;;5021678;28;20195;-62
2023/07/03 02:44:07;;;;;;;14.87;12.97;;;23.10;91.60;;;;;;5022287;28;20502;-62
2023/07/03 02:46:35;;;;;;;14.63;13.20;;;23.00;91.60;;;;;;5030639;28;20274;-63
2023/07/03 02:49:03;;;;;;;14.80;13.40;;;23.00;91.60;;;;;;5028529;28;20204;-62
2023/07/03 02:51:30;;;;;;;15.73;14.23;;;23.00;91.70;;;;;;5021824;28;20649;-62
2023/07/03 02:54:00;;;;;;;16.53;14.80;;;23.00;91.70;;;;;;5023366;28;20286;-62
2023/07/03 02:56:28;;;;;;;14.20;12.80;;;23.00;91.80;;;;;;5024335;28;20250;-63
2023/07/03 02:58:55;;;;;;;14.73;13.17;;;23.00;91.90;;;;;;5034937;28;20218;-62
2023/07/03 03:01:28;;;;;;;15.40;13.93;;;22.90;91.90;;;;;;5054530;28;20577;-62
2023/07/03 03:03:58;;;;;;;14.20;12.80;;;23.00;91.90;;;;;;5050328;28;20203;-63
2023/07/03 03:06:26;;;;;;;15.20;13.70;;;22.90;91.90;;;;;;5026765;28;20199;-62
2023/07/03 03:08:53;;;;;;;16.23;14.63;;;22.90;91.80;;;;;;5022495;28;20541;-62
2023/07/03 03:11:22;;;;;;;16.47;13.93;;;22.90;91.80;;;;;;5028546;28;20214;-62
2023/07/03 03:13:53;;;;;;;16.90;15.07;;;22.90;91.90;;;;;;5022811;28;20231;-62
2023/07/03 03:16:20;;;;;;;17.50;15.77;;;22.90;91.90;;;;;;5050822;28;20237;-62
2023/07/03 03:18:48;;;;;;;16.93;15.20;;;22.90;92.00;;;;;;5026687;28;20199;-62
2023/07/03 03:21:15;;;;;;;14.97;13.47;;;22.80;92.10;;;;;;5039019;28;20208;-62
2023/07/03 03:23:46;;;;;;;14.53;13.03;;;22.80;92.20;;;;;;5059777;28;20204;-62
2023/07/03 03:26:13;;;;;;;15.00;13.50;;;22.80;92.10;;;;;;5052481;28;20669;-62
2023/07/03 03:28:40;;;;;;;14.40;13.00;;;22.80;92.10;;;;;;5021292;28;20204;-63
2023/07/03 03:31:08;;;;;;;15.03;13.43;;;22.80;92.10;;;;;;5024447;28;20273;-62
2023/07/03 03:33:41;;;;;;;13.80;12.43;;;22.80;92.10;;;;;;5019607;28;20231;-63
2023/07/03 03:36:08;;;;;;;15.43;13.07;;;22.80;92.00;;;;;;5054953;28;20219;-62
2023/07/03 03:38:37;;;;;;;15.27;11.97;;;22.70;91.70;;;;;;5017179;28;20191;-62
2023/07/03 03:41:04;;;;;;;15.33;12.83;;;22.70;91.60;;;;;;5029271;28;20216;-62
2023/07/03 03:43:37;;;;;;;15.40;13.83;;;22.60;91.60;;;;;;5023199;28;20236;-62
2023/07/03 03:46:06;;;;;;;17.93;14.30;;;22.60;91.80;;;;;;5022800;28;20516;-63
2023/07/03 03:48:35;;;;;;;15.77;14.13;;;22.60;91.90;;;;;;5028326;28;20200;-62
2023/07/03 03:51:07;;;;;;;14.00;12.57;;;22.60;92.00;;;;;;5034123;28;20207;-62
2023/07/03 03:53:35;;;;;;;16.63;14.37;;;22.60;92.00;;;;;;5051484;28;20276;-62
2023/07/03 03:56:02;;;;;;;18.57;15.17;;;22.60;92.00;;;;;;5020856;28;20262;-62
2023/07/03 03:58:32;;;;;;;14.57;13.17;;;22.60;92.10;;;;;;5024773;28;20203;-62
2023/07/03 04:00:59;;;;;;;15.70;14.10;;;22.60;92.10;;;;;;5025102;28;20562;-63
2023/07/03 04:03:28;;;;;;;15.27;13.67;;;22.60;92.20;;;;;;5018011;28;20200;-62
2023/07/03 04:05:58;;;;;;;15.73;14.10;;;22.70;92.20;;;;;;5024089;28;20199;-62
2023/07/03 04:08:25;;;;;;;14.17;12.77;;;22.70;92.20;;;;;;5021815;28;20503;-62
2023/07/03 04:10:53;;;;;;;15.90;13.07;;;22.70;92.00;;;;;;5019809;28;20219;-62
2023/07/03 04:13:19;;;;;;;13.53;12.10;;;22.70;91.90;;;;;;5019932;28;20219;-62
2023/07/03 04:15:53;;;;;;;13.90;12.50;;;22.80;91.90;;;;;;5016640;28;20216;-62
2023/07/03 04:18:22;;;;;;;16.63;14.93;;;22.80;92.00;;;;;;5019915;28;20203;-62
2023/07/03 04:20:49;;;;;;;16.97;14.27;;;22.80;92.10;;;;;;5022818;28;20226;-63
2023/07/03 04:23:17;;;;;;;16.73;14.60;;;22.80;92.10;;;;;;5023488;28;20198;-63
2023/07/03 04:25:44;;;;;;;19.03;14.50;;;22.90;92.10;;;;;;5031004;28;20238;-62
2023/07/03 04:28:12;;;;;;;16.07;14.47;;;22.90;92.10;;;;;;5036189;28;20667;-62
2023/07/03 04:30:39;;;;;;;18.33;15.17;;;23.00;92.10;;;;;;5040890;28;20195;-62
2023/07/03 04:33:06;;;;;;;18.43;16.27;;;23.00;92.10;;;;;;5046445;28;20642;-62
2023/07/03 04:35:35;;;;;;;17.87;16.07;;;23.00;92.10;;;;;;5046624;28;20194;-62
2023/07/03 04:38:03;;;;;;;18.73;14.83;;;23.10;92.30;;;;;;5048038;28;20235;-62
2023/07/03 04:40:31;;;;;;;15.90;14.20;;;23.10;92.40;;;;;;5042479;28;20550;-62
2023/07/03 04:42:58;;;;;;;16.80;15.20;;;23.20;92.50;;;;;;5050508;28;20199;-62
2023/07/03 04:45:26;;;;;;;16.97;15.27;;;23.20;92.40;;;;;;5044439;28;20238;-62
2023/07/03 04:47:54;;;;;;;17.07;14.73;;;23.30;92.40;;;;;;5042484;28;20201;-62
2023/07/03 04:50:24;;;;;;;16.80;15.03;;;23.30;92.40;;;;;;5039767;28;20647;-62
2023/07/03 04:52:52;;;;;;;16.80;15.10;;;23.40;92.40;;;;;;5039340;28;20222;-63
2023/07/03 04:55:23;;;;;;;18.07;15.43;;;23.50;92.50;;;;;;5043180;28;20289;-63
2023/07/03 04:57:52;;;;;;;17.13;15.33;;;23.60;92.50;;;;;;5046389;28;20219;-63
2023/07/03 05:00:19;;;;;;;18.17;15.87;;;23.60;92.40;;;;;;5044524;28;20190;-62
2023/07/03 05:02:51;;;;;;;16.87;15.27;;;23.70;92.40;;;;;;5047608;28;20203;-62
2023/07/03 05:05:19;;;;;;;16.40;14.90;;;23.80;92.40;;;;;;5044945;28;20240;-63
2023/07/03 05:07:49;;;;;;;18.37;15.87;;;23.90;92.40;;;;;;5045103;28;20266;-63
2023/07/03 05:10:17;;;;;;;23.20;16.47;;;23.90;92.30;;;;;;5046866;28;20513;-63
2023/07/03 05:12:45;;;;;;;20.93;16.93;;;24.10;92.30;;;;;;5042289;28;20207;-63
2023/07/03 05:15:14;;;;;;;19.13;17.23;;;24.10;92.20;;;;;;5040450;28;20213;-63
2023/07/03 05:17:42;;;;;;;18.93;16.87;;;24.20;92.20;;;;;;5047412;28;20558;-63
2023/07/03 05:20:12;;;;;;;21.90;17.43;;;24.30;92.00;;;;;;5048445;28;20527;-62
2023/07/03 05:22:42;;;;;;;21.27;17.10;;;24.40;91.90;;;;;;5045659;28;20214;-63
2023/07/03 05:25:12;;;;;;;19.00;17.20;;;24.50;91.80;;;;;;5048274;28;20243;-62
2023/07/03 05:27:39;;;;;;;19.70;17.67;;;24.60;91.70;;;;;;5040732;28;20207;-62
2023/07/03 05:30:07;;;;;;;21.87;18.07;;;24.70;91.60;;;;;;5043743;28;20491;-63
2023/07/03 05:32:35;;;;;;;20.33;18.23;;;24.80;91.50;;;;;;5043838;28;20256;-63
2023/07/03 05:35:04;;;;;;;20.70;18.57;;;24.90;91.30;;;;;;5046729;28;20285;-62
2023/07/03 05:37:31;;;;;;;21.80;18.73;;;25.00;91.10;;;;;;5035314;28;20656;-62
2023/07/03 05:39:58;;;;;;;21.67;18.43;;;25.10;91.00;;;;;;5040483;28;20283;-63
2023/07/03 05:42:25;;;;;;;19.70;17.70;;;25.20;90.80;;;;;;5042754;28;20284;-62
2023/07/03 05:44:52;;;;;;;21.23;17.50;;;25.30;90.70;;;;;;5044932;28;20199;-63
2023/07/03 05:47:21;;;;;;;19.40;17.50;;;25.50;90.50;;;;;;5042147;28;20537;-62
2023/07/03 05:49:49;;;;;;;18.67;16.47;;;25.70;90.40;;;;;;5037998;28;20653;-63
2023/07/03 05:52:16;;;;;;;17.80;15.93;;;25.80;90.20;;;;;;5040222;28;20560;-63
2023/07/03 05:54:43;;;;;;;20.60;16.20;;;25.90;89.90;;;;;;5045691;28;20209;-63
2023/07/03 05:57:11;;;;;;;16.70;14.53;;;26.10;89.40;;;;;;5038343;28;20321;-63
2023/07/03 05:59:39;;;;;;;17.47;15.57;;;26.20;88.90;;;;;;5042882;28;20204;-63
2023/07/03 06:02:10;;;;;;;16.20;14.23;;;26.40;88.40;;;;;;5044551;28;20622;-63
2023/07/03 06:04:37;;;;;;;15.57;13.93;;;26.50;87.80;;;;;;5041950;28;20297;-63
2023/07/03 06:07:04;;;;;;;18.37;13.90;;;26.60;87.20;;;;;;5043193;28;20585;-62
2023/07/03 06:09:33;;;;;;;14.10;12.60;;;26.70;86.40;;;;;;5045512;28;20245;-63
2023/07/03 06:12:03;;;;;;;15.83;11.20;;;26.80;85.90;;;;;;5046765;28;20194;-62
2023/07/03 06:14:31;;;;;;;17.43;12.00;;;26.90;85.50;;;;;;5033890;28;20199;-62
2023/07/03 06:16:59;;;;;;;13.30;10.83;;;27.00;84.70;;;;;;5043187;28;20249;-62
2023/07/03 06:19:28;;;;;;;13.53;11.23;;;27.10;83.90;;;;;;5042500;28;20199;-62
2023/07/03 06:21:55;;;;;;;11.53;10.33;;;27.20;83.10;;;;;;5044063;28;20230;-62
2023/07/03 06:24:22;;;;;;;11.63;9.73;;;27.30;82.50;;;;;;5042048;28;20206;-61
2023/07/03 06:26:51;;;;;;;11.83;9.07;;;27.40;82.30;;;;;;5039594;28;20308;-62
2023/07/03 06:29:18;;;;;;;14.63;12.63;;;27.50;81.50;;;;;;5042501;28;20259;-61
2023/07/03 06:31:47;;;;;;;21.67;12.37;;;27.50;80.10;;;;;;5050816;28;20646;-62
2023/07/03 06:34:14;;;;;;;17.03;11.87;;;27.60;80.20;;;;;;5045234;28;20286;-62
2023/07/03 06:36:41;;;;;;;17.17;13.10;;;27.60;80.40;;;;;;5041014;28;20227;-63
2023/07/03 06:39:09;;;;;;;15.00;12.37;;;27.60;79.90;;;;;;5044934;28;20217;-62
2023/07/03 06:41:36;;;;;;;16.23;11.87;;;27.60;79.30;;;;;;5038672;28;20253;-61
2023/07/03 06:44:05;;;;;;;12.90;11.13;;;27.60;79.00;;;;;;5039292;28;20289;-63
2023/07/03 06:46:33;;;;;;;11.30;10.20;;;27.60;79.10;;;;;;5046289;28;20213;-61
2023/07/03 06:49:01;;;;;;;13.67;9.67;;;27.70;79.20;;;;;;5050148;28;20722;-62
2023/07/03 06:51:28;;;;;;;16.03;10.47;;;27.80;79.60;;;;;;5046828;28;20214;-62
2023/07/03 06:53:55;;;;;;;10.57;8.90;;;28.00;79.20;;;;;;5039555;28;20209;-61
2023/07/03 06:56:23;;;;;;;13.97;8.80;;;28.10;78.20;;;;;;5043289;28;20202;-62
2023/07/03 06:58:53;;;;;;;16.47;11.50;;;28.30;78.10;;;;;;5042266;28;20195;-62
2023/07/03 07:01:22;;;;;;;15.37;9.77;;;28.50;76.30;;;;;;5043412;28;20285;-62
2023/07/03 07:03:49;;;;;;;11.77;10.53;;;28.50;75.90;;;;;;5040396;28;20297;-62
2023/07/03 07:06:24;;;;;;;11.13;9.97;;;28.60;75.60;;;;;;5038643;28;20282;-61
2023/07/03 07:08:52;;;;;;;16.60;11.60;;;28.60;75.70;;;;;;5044515;28;20202;-61
2023/07/03 07:11:32;;;;;;;12.87;10.20;;;28.60;75.20;;;;;;5043342;28;20198;-62
2023/07/03 07:14:00;;;;;;;14.83;10.03;;;28.70;75.60;;;;;;5040901;28;20278;-62
2023/07/03 07:16:32;;;;;;;12.40;11.10;;;28.70;75.20;;;;;;5038762;28;20187;-61
2023/07/03 07:19:01;;;;;;;13.47;12.10;;;28.70;74.70;;;;;;5041106;28;20241;-61
2023/07/03 07:21:31;;;;;;;12.67;11.37;;;28.80;74.20;;;;;;5044946;28;20203;-61
2023/07/03 07:24:01;;;;;;;12.50;11.30;;;28.80;74.30;;;;;;5050089;28;20213;-61
2023/07/03 07:26:33;;;;;;;12.90;11.53;;;29.00;74.30;;;;;;5041587;28;20239;-62
2023/07/03 07:29:01;;;;;;;13.50;11.37;;;29.00;74.20;;;;;;5048669;28;20214;-62
2023/07/03 07:31:29;;;;;;;11.80;10.47;;;29.10;74.10;;;;;;5045086;28;20197;-62
2023/07/03 07:33:58;;;;;;;15.87;12.07;;;29.10;73.40;;;;;;5040985;28;20194;-62
2023/07/03 07:36:26;;;;;;;13.33;11.20;;;29.10;73.50;;;;;;5039952;28;20541;-62
2023/07/03 07:38:53;;;;;;;15.33;11.80;;;29.20;73.90;;;;;;5038227;28;20203;-62
2023/07/03 07:41:24;;;;;;;12.57;11.27;;;29.30;73.70;;;;;;5036777;28;20210;-62
2023/07/03 07:43:53;;;;;;;14.03;12.60;;;29.50;73.50;;;;;;5041334;28;20191;-62
2023/07/03 07:46:25;;;;;;;14.30;12.87;;;29.70;73.30;;;;;;5042998;28;20578;-62
2023/07/03 07:48:52;;;;;;;16.30;14.30;;;29.80;72.20;;;;;;5043696;28;20285;-62
2023/07/03 07:51:19;;;;;;;13.67;12.17;;;29.90;71.90;;;;;;5034735;28;20199;-62
2023/07/03 07:53:46;;;;;;;13.67;12.37;;;29.90;71.50;;;;;;5038086;28;20252;-61
2023/07/03 07:56:14;;;;;;;14.17;12.77;;;30.10;71.50;;;;;;5041386;28;20590;-62
2023/07/03 07:58:41;;;;;;;16.77;13.97;;;30.20;71.50;;;;;;5048591;28;20215;-61
2023/07/03 08:01:11;;;;;;;14.37;12.87;;;30.30;71.40;;;;;;5039614;28;20578;-62
2023/07/03 08:03:40;;;;;;;15.00;13.40;;;30.40;71.30;;;;;;5038181;28;20257;-62
2023/07/03 08:06:08;;;;;;;15.57;13.33;;;30.50;71.50;;;;;;5045117;28;20226;-62
2023/07/03 08:08:36;;;;;;;20.07;12.30;;;30.50;71.50;;;;;;5029865;28;20202;-62
2023/07/03 08:11:06;;;;;;;15.63;13.40;;;30.60;71.50;;;;;;5040946;28;20194;-62
2023/07/03 08:13:34;;;;;;;13.23;11.83;;;30.70;71.20;;;;;;5040046;28;20202;-61
2023/07/03 08:16:01;;;;;;;18.77;12.37;;;30.90;71.20;;;;;;5040822;28;20588;-62
2023/07/03 08:18:29;;;;;;;14.87;13.33;;;31.10;71.20;;;;;;5042226;28;20230;-62
2023/07/03 08:20:56;;;;;;;15.87;13.87;;;31.40;70.60;;;;;;5040011;28;20199;-62
2023/07/03 08:23:23;;;;;;;16.20;14.40;;;31.60;69.70;;;;;;5047189;28;20198;-62
2023/07/03 08:25:52;;;;;;;17.10;15.30;;;31.80;68.80;;;;;;5034761;28;20712;-62
2023/07/03 08:28:22;;;;;;;15.73;14.10;;;31.90;68.20;;;;;;5038016;28;20241;-62
2023/07/03 08:30:49;;;;;;;17.70;13.40;;;31.80;67.90;;;;;;5045269;28;20577;-62
2023/07/03 08:33:16;;;;;;;17.93;14.37;;;31.80;69.00;;;;;;5042671;28;20310;-62
2023/07/03 08:35:44;;;;;;;17.90;16.10;;;31.80;69.70;;;;;;5039346;28;20191;-62
2023/07/03 08:38:14;;;;;;;16.33;14.77;;;32.00;68.60;;;;;;5037059;28;20280;-62
2023/07/03 08:40:42;;;;;;;16.53;14.37;;;31.90;68.30;;;;;;5038553;28;20191;-62
2023/07/03 08:43:15;;;;;;;15.13;13.60;;;32.00;68.70;;;;;;5044015;28;20206;-61
2023/07/03 08:45:46;;;;;;;13.23;12.10;;;32.00;68.20;;;;;;5043937;28;20207;-62
2023/07/03 08:48:22;;;;;;;13.40;11.73;;;32.00;68.90;;;;;;5040463;28;20203;-62
2023/07/03 08:50:56;;;;;;;17.00;12.50;;;32.00;69.20;;;;;;5020529;28;20203;-62
2023/07/03 08:53:37;;;;;;;14.63;13.07;;;32.10;69.70;;;;;;5039026;28;20199;-62
2023/07/03 08:56:17;;;;;;;16.57;12.00;;;32.20;69.30;;;;;;5043153;28;20203;-62
2023/07/03 08:58:45;;;;;;;17.23;14.50;;;32.40;69.00;;;;;;5041587;28;20233;-62
2023/07/03 09:01:30;;;;;;;14.47;12.93;;;32.30;67.20;;;;;;5044970;28;20206;-62
2023/07/03 09:04:24;;;;;;;14.73;13.33;;;32.20;67.60;;;;;;5042814;28;20655;-62
2023/07/03 09:07:24;;;;;;;14.67;12.20;;;32.00;68.40;;;;;;5044433;28;20634;-62
2023/07/03 09:10:02;;;;;;;13.70;12.30;;;32.00;68.70;;;;;;5037196;28;20225;-62
2023/07/03 09:12:58;;;;;;;14.47;12.97;;;32.10;69.00;;;;;;5039714;28;20241;-62
2023/07/03 09:15:34;;;;;;;12.73;11.53;;;32.20;68.70;;;;;;4999223;28;20243;-62
2023/07/03 09:18:08;;;;;;;17.67;13.13;;;32.30;68.10;;;;;;5038158;28;20614;-62
2023/07/03 09:20:35;;;;;;;12.27;10.10;;;32.20;67.00;;;;;;5045328;28;20261;-62
2023/07/03 09:23:08;;;;;;;14.23;12.73;;;32.00;67.10;;;;;;5046188;28;20249;-62
2023/07/03 09:25:44;;;;;;;15.97;12.77;;;31.80;67.90;;;;;;5041275;28;20243;-62
2023/07/03 09:28:11;;;;;;;14.73;12.77;;;31.80;68.30;;;;;;5044784;28;20263;-62
2023/07/03 09:30:38;;;;;;;14.90;13.27;;;31.80;67.40;;;;;;5014181;28;20214;-62
2023/07/03 09:33:06;;;;;;;11.97;10.77;;;32.00;67.50;;;;;;5045563;28;20205;-62
2023/07/03 09:35:40;;;;;;;13.37;10.67;;;32.10;66.90;;;;;;5051210;28;20688;-62
2023/07/03 09:38:14;;;;;;;16.20;10.03;;;32.30;67.20;;;;;;5047898;28;20215;-62
2023/07/03 09:40:44;;;;;;;11.97;10.50;;;32.50;67.60;;;;;;5049117;28;20194;-62
2023/07/03 09:43:26;;;;;;;10.40;8.73;;;32.80;66.70;;;;;;5048583;28;20582;-62
2023/07/03 09:46:08;;;;;;;9.30;8.30;;;33.10;66.00;;;;;;5043913;28;20744;-62
2023/07/03 09:48:36;;;;;;;11.47;9.33;;;33.40;65.40;;;;;;5041595;28;20537;-63
2023/07/03 09:51:27;;;;;;;10.73;9.00;;;33.60;64.80;;;;;;5037396;28;20207;-62
2023/07/03 09:53:57;;;;;;;10.27;9.13;;;33.90;64.70;;;;;;5045457;28;20202;-62
2023/07/03 09:56:29;;;;;;;9.23;8.20;;;34.10;63.80;;;;;;5043759;28;20211;-63
2023/07/03 09:59:03;;;;;;;10.80;8.47;;;34.20;63.80;;;;;;5043371;28;20211;-62
2023/07/03 10:01:32;;;;;;;10.03;8.33;;;34.30;63.30;;;;;;5042731;28;20661;-62
2023/07/03 10:04:08;;;;;;;11.47;9.40;;;34.50;63.10;;;;;;5043437;28;20195;-63
2023/07/03 10:06:41;;;;;;;9.27;8.27;;;34.60;62.70;;;;;;5043268;28;20290;-62
2023/07/03 10:09:25;;;;;;;9.73;8.37;;;34.80;62.40;;;;;;5045775;28;20282;-62
2023/07/03 10:12:04;;;;;;;10.63;8.90;;;34.90;61.80;;;;;;5046267;28;20237;-62
2023/07/03 10:14:41;;;;;;;10.52;8.00;;;35.00;61.00;;;;;;5020898;28;20278;-62
2023/07/03 10:17:15;;;;;;;10.65;7.68;;;35.20;60.50;;;;;;5046533;28;20263;-63
2023/07/03 10:19:49;;;;;;;9.87;7.60;;;35.30;60.90;;;;;;5044912;28;20198;-62
2023/07/03 10:22:17;;;;;;;9.13;6.95;;;35.40;60.80;;;;;;5046225;28;20680;-62
2023/07/03 10:24:46;;;;;;;9.25;8.32;;;35.50;60.70;;;;;;5043893;28;20582;-61
2023/07/03 10:27:15;;;;;;;9.57;7.22;;;35.60;59.00;;;;;;5041437;28;20222;-62
2023/07/03 10:29:46;;;;;;;10.30;8.00;;;35.60;58.80;;;;;;5042158;28;20203;-62
2023/07/03 10:32:17;;;;;;;8.55;6.32;;;35.60;58.80;;;;;;5045770;28;20578;-61
2023/07/03 10:35:01;;;;;;;12.95;8.38;;;35.70;58.90;;;;;;5046412;28;20277;-61
2023/07/03 10:37:33;;;;;;;9.60;6.60;;;35.80;57.70;;;;;;5037506;28;20211;-61
2023/07/03 10:40:12;;;;;;;7.32;6.43;;;35.80;58.10;;;;;;5040166;28;20597;-60
2023/07/03 10:42:48;;;;;;;11.95;6.22;;;35.80;58.30;;;;;;5044052;28;20203;-61
2023/07/03 10:45:15;;;;;;;7.72;6.60;;;35.80;58.50;;;;;;5042018;28;20574;-62
2023/07/03 10:48:08;;;;;;;7.47;6.72;;;35.80;58.80;;;;;;5042537;28;20260;-62
2023/07/03 10:51:14;;;;;;;8.13;6.05;;;35.70;58.70;;;;;;5035757;28;20199;-62
2023/07/03 10:53:45;;;;;;;9.48;6.15;;;35.20;58.20;;;;;;5043477;28;20207;-62
2023/07/03 10:56:31;;;;;;;9.25;6.28;;;34.70;59.70;;;;;;5046663;28;20204;-62
2023/07/03 10:59:34;;;;;;;7.23;5.60;;;34.20;60.40;;;;;;5043402;28;20222;-62
2023/07/03 11:02:32;;;;;;;8.53;6.17;;;33.60;63.00;;;;;;5026770;28;20264;-61
2023/07/03 11:05:15;;;;;;;6.23;5.63;;;33.20;62.30;;;;;;5040730;28;20206;-62
2023/07/03 11:08:06;;;;;;;9.83;6.60;;;32.90;64.50;;;;;;5041328;28;20282;-62
2023/07/03 11:11:11;;;;;;;6.73;5.57;;;32.80;65.00;;;;;;5044831;28;20577;-62
2023/07/03 11:13:56;;;;;;;7.10;6.40;;;32.70;65.80;;;;;;5039339;28;20257;-62
2023/07/03 11:16:35;;;;;;;11.33;6.90;;;32.60;66.10;;;;;;5040485;28;20256;-62
2023/07/03 11:19:21;;;;;;;8.83;6.17;;;32.40;65.60;;;;;;5043081;28;20221;-62
2023/07/03 11:22:12;;;;;;;10.47;5.80;;;32.30;66.60;;;;;;5043129;28;20200;-62
2023/07/03 11:24:48;;;;;;;7.20;6.17;;;32.10;67.30;;;;;;5039776;28;20249;-61
2023/07/03 11:28:04;;;;;;;8.43;6.63;;;32.20;68.30;;;;;;5036218;28;20285;-62
2023/07/03 11:30:33;;;;;;;10.67;6.30;;;32.30;67.10;;;;;;5033977;28;20207;-62
2023/07/03 11:33:05;;;;;;;7.50;5.97;;;32.60;65.90;;;;;;5042352;28;20207;-63
2023/07/03 11:35:32;;;;;;;6.90;6.13;;;32.90;65.10;;;;;;5040786;28;20195;-62
2023/07/03 11:38:13;;;;;;;6.83;6.00;;;33.10;64.80;;;;;;5039063;28;20318;-62
2023/07/03 11:40:57;;;;;;;8.57;5.90;;;33.20;64.80;;;;;;5040015;28;20186;-62
2023/07/03 11:43:54;;;;;;;9.93;7.00;;;33.50;64.70;;;;;;5040857;28;20533;-62
2023/07/03 11:46:24;;;;;;;11.07;6.67;;;33.60;64.00;;;;;;5028689;28;20641;-62
2023/07/03 11:48:56;;;;;;;7.50;6.70;;;33.50;63.50;;;;;;5050100;28;20276;-62
2023/07/03 11:51:35;;;;;;;11.37;6.20;;;33.30;63.50;;;;;;5040930;28;20207;-62
2023/07/03 11:54:23;;;;;;;6.97;6.23;;;33.00;64.90;;;;;;5040867;28;20758;-62
2023/07/03 11:56:54;;;;;;;8.20;6.50;;;32.90;67.00;;;;;;5043350;28;20226;-61
2023/07/03 11:59:24;;;;;;;7.40;6.20;;;33.00;64.80;;;;;;5040887;28;20668;-62
2023/07/03 12:01:54;;;;;;;13.63;5.90;;;32.90;65.00;;;;;;5041172;28;20209;-62
2023/07/03 12:04:48;;;;;;;8.73;5.10;;;33.00;66.20;;;;;;5035734;28;20264;-63
2023/07/03 12:07:19;;;;;;;6.77;6.07;;;33.10;65.90;;;;;;5040443;28;20234;-62
2023/07/03 12:09:47;;;;;;;6.97;6.27;;;33.20;67.30;;;;;;5044053;28;20284;-62
2023/07/03 12:12:24;;;;;;;8.40;5.67;;;33.20;65.30;;;;;;5043655;28;20255;-62
2023/07/03 12:14:56;;;;;;;6.70;5.50;;;33.00;65.40;;;;;;5040933;28;20202;-62
2023/07/03 12:17:32;;;;;;;8.03;5.20;;;33.00;65.50;;;;;;5039699;28;20211;-63
2023/07/03 12:20:05;;;;;;;12.67;5.70;;;32.90;66.80;;;;;;5041025;28;20638;-62
2023/07/03 12:22:52;;;;;;;8.63;5.90;;;32.90;65.70;;;;;;5043562;28;20202;-62
2023/07/03 12:25:25;;;;;;;7.13;6.07;;;33.00;65.90;;;;;;5043193;28;20653;-62
2023/07/03 12:27:54;;;;;;;8.83;6.30;;;32.80;66.20;;;;;;5043895;28;20270;-62
2023/07/03 12:30:27;;;;;;;7.47;5.67;;;32.70;65.60;;;;;;5045690;28;20202;-63
2023/07/03 12:32:55;;;;;;;5.93;5.40;;;32.50;65.90;;;;;;5041644;28;20537;-62
2023/07/03 12:35:25;;;;;;;7.40;5.60;;;32.50;66.40;;;;;;5041004;28;20203;-62
2023/07/03 12:38:04;;;;;;;6.93;5.70;;;32.40;66.10;;;;;;5037110;28;20199;-62
2023/07/03 12:40:32;;;;;;;6.10;5.50;;;32.30;66.70;;;;;;5043096;28;20521;-63
2023/07/03 12:42:59;;;;;;;6.70;5.70;;;32.30;66.60;;;;;;5039913;28;20203;-61
2023/07/03 12:45:30;;;;;;;7.17;5.83;;;32.40;66.30;;;;;;5044920;28;20693;-64
2023/07/03 12:48:05;;;;;;;7.73;5.53;;;32.50;67.20;;;;;;5040446;28;20198;-62
2023/07/03 12:50:57;;;;;;;7.13;5.37;;;32.60;65.70;;;;;;5039961;28;20205;-64
2023/07/03 12:53:32;;;;;;;7.53;5.50;;;32.60;66.20;;;;;;5039805;28;20646;-62